sensor_id;sensor_type;location;lat;lon;timestamp;pressure;altitude;pressure_sealevel;temperature
11321;BMP180;5715;48.234;14.320;2023-09-12T00:00:48;98256.00;;;24.70
11321;BMP180;5715;48.234;14.320;2023-09-12T00:03:37;98256.00;;;24.70
11321;BMP180;5715;48.234;14.320;2023-09-12T00:06:25;98259.00;;;24.70
11321;BMP180;5715;48.234;14.320;2023-09-12T00:09:12;98264.00;;;24.70
11321;BMP180;5715;48.234;14.320;2023-09-12T00:12:00;98265.00;;;24.70
11321;BMP180;5715;48.234;14.320;2023-09-12T00:14:47;98272.00;;;24.70
11321;BMP180;5715;48.234;14.320;2023-09-12T00:17:35;98268.00;;;24.70
11321;BMP180;5715;48.234;14.320;2023-09-12T00:20:23;98267.00;;;24.70
11321;BMP180;5715;48.234;14.320;2023-09-12T00:23:10;98279.00;;;25.00
11321;BMP180;5715;48.234;14.320;2023-09-12T00:25:58;98271.00;;;25.00
11321;BMP180;5715;48.234;14.320;2023-09-12T00:28:45;98266.00;;;25.10
11321;BMP180;5715;48.234;14.320;2023-09-12T00:31:33;98267.00;;;25.10
11321;BMP180;5715;48.234;14.320;2023-09-12T00:34:21;98270.00;;;25.20
11321;BMP180;5715;48.234;14.320;2023-09-12T00:37:08;98255.00;;;25.10
11321;BMP180;5715;48.234;14.320;2023-09-12T00:39:56;98259.00;;;25.00
11321;BMP180;5715;48.234;14.320;2023-09-12T00:42:44;98267.00;;;25.00
11321;BMP180;5715;48.234;14.320;2023-09-12T00:45:31;98270.00;;;25.10
11321;BMP180;5715;48.234;14.320;2023-09-12T00:48:21;98270.00;;;25.20
11321;BMP180;5715;48.234;14.320;2023-09-12T00:51:10;98266.00;;;24.90
11321;BMP180;5715;48.234;14.320;2023-09-12T00:53:58;98268.00;;;24.80
11321;BMP180;5715;48.234;14.320;2023-09-12T00:56:46;98269.00;;;24.80
11321;BMP180;5715;48.234;14.320;2023-09-12T00:59:34;98271.00;;;24.80
11321;BMP180;5715;48.234;14.320;2023-09-12T01:02:22;98274.00;;;24.90
11321;BMP180;5715;48.234;14.320;2023-09-12T01:05:11;98265.00;;;24.80
11321;BMP180;5715;48.234;14.320;2023-09-12T01:08:00;98269.00;;;24.70
11321;BMP180;5715;48.234;14.320;2023-09-12T01:10:49;98270.00;;;24.70
11321;BMP180;5715;48.234;14.320;2023-09-12T01:13:37;98264.00;;;24.70
11321;BMP180;5715;48.234;14.320;2023-09-12T01:16:25;98272.00;;;24.60
11321;BMP180;5715;48.234;14.320;2023-09-12T01:19:14;98266.00;;;24.60
11321;BMP180;5715;48.234;14.320;2023-09-12T01:22:21;98264.00;;;24.60
11321;BMP180;5715;48.234;14.320;2023-09-12T01:29:16;98264.00;;;24.40
11321;BMP180;5715;48.234;14.320;2023-09-12T01:32:04;98262.00;;;24.50
11321;BMP180;5715;48.234;14.320;2023-09-12T01:34:52;98266.00;;;24.60
11321;BMP180;5715;48.234;14.320;2023-09-12T01:37:39;98263.00;;;24.60
11321;BMP180;5715;48.234;14.320;2023-09-12T01:40:51;98264.00;;;24.50
11321;BMP180;5715;48.234;14.320;2023-09-12T01:43:41;98263.00;;;24.40
11321;BMP180;5715;48.234;14.320;2023-09-12T01:46:31;98260.00;;;24.40
11321;BMP180;5715;48.234;14.320;2023-09-12T01:49:23;98257.00;;;24.30
11321;BMP180;5715;48.234;14.320;2023-09-12T01:52:13;98261.00;;;24.30
11321;BMP180;5715;48.234;14.320;2023-09-12T01:55:02;98264.00;;;24.20
11321;BMP180;5715;48.234;14.320;2023-09-12T01:57:50;98265.00;;;24.30
11321;BMP180;5715;48.234;14.320;2023-09-12T02:00:40;98269.00;;;24.30
11321;BMP180;5715;48.234;14.320;2023-09-12T02:03:28;98265.00;;;24.30
11321;BMP180;5715;48.234;14.320;2023-09-12T02:06:15;98266.00;;;24.20
11321;BMP180;5715;48.234;14.320;2023-09-12T02:09:03;98268.00;;;24.30
11321;BMP180;5715;48.234;14.320;2023-09-12T02:11:51;98268.00;;;24.30
11321;BMP180;5715;48.234;14.320;2023-09-12T02:14:39;98269.00;;;24.20
11321;BMP180;5715;48.234;14.320;2023-09-12T02:17:27;98260.00;;;24.20
11321;BMP180;5715;48.234;14.320;2023-09-12T02:20:14;98271.00;;;24.20
11321;BMP180;5715;48.234;14.320;2023-09-12T02:23:02;98267.00;;;24.20
11321;BMP180;5715;48.234;14.320;2023-09-12T02:25:50;98268.00;;;24.00
11321;BMP180;5715;48.234;14.320;2023-09-12T02:28:37;98268.00;;;24.00
11321;BMP180;5715;48.234;14.320;2023-09-12T02:31:25;98270.00;;;24.00
11321;BMP180;5715;48.234;14.320;2023-09-12T02:34:12;98270.00;;;24.00
11321;BMP180;5715;48.234;14.320;2023-09-12T02:37:00;98270.00;;;23.90
11321;BMP180;5715;48.234;14.320;2023-09-12T02:39:48;98269.00;;;23.90
11321;BMP180;5715;48.234;14.320;2023-09-12T02:42:35;98263.00;;;23.90
11321;BMP180;5715;48.234;14.320;2023-09-12T02:45:23;98265.00;;;23.90
11321;BMP180;5715;48.234;14.320;2023-09-12T02:48:10;98262.00;;;23.80
11321;BMP180;5715;48.234;14.320;2023-09-12T02:50:58;98266.00;;;23.90
11321;BMP180;5715;48.234;14.320;2023-09-12T02:53:46;98258.00;;;23.80
11321;BMP180;5715;48.234;14.320;2023-09-12T02:56:33;98262.00;;;23.80
11321;BMP180;5715;48.234;14.320;2023-09-12T02:59:21;98270.00;;;23.90
11321;BMP180;5715;48.234;14.320;2023-09-12T03:02:08;98261.00;;;23.90
11321;BMP180;5715;48.234;14.320;2023-09-12T03:04:56;98263.00;;;23.80
11321;BMP180;5715;48.234;14.320;2023-09-12T03:07:44;98267.00;;;23.80
11321;BMP180;5715;48.234;14.320;2023-09-12T03:10:31;98269.00;;;23.80
11321;BMP180;5715;48.234;14.320;2023-09-12T03:13:19;98260.00;;;23.70
11321;BMP180;5715;48.234;14.320;2023-09-12T03:16:14;98260.00;;;23.70
11321;BMP180;5715;48.234;14.320;2023-09-12T03:19:02;98265.00;;;23.60
11321;BMP180;5715;48.234;14.320;2023-09-12T03:21:50;98264.00;;;23.50
11321;BMP180;5715;48.234;14.320;2023-09-12T03:24:37;98263.00;;;23.50
11321;BMP180;5715;48.234;14.320;2023-09-12T03:27:25;98257.00;;;23.50
11321;BMP180;5715;48.234;14.320;2023-09-12T03:30:13;98256.00;;;23.50
11321;BMP180;5715;48.234;14.320;2023-09-12T03:33:00;98270.00;;;23.50
11321;BMP180;5715;48.234;14.320;2023-09-12T03:35:48;98270.00;;;23.60
11321;BMP180;5715;48.234;14.320;2023-09-12T03:38:36;98284.00;;;23.50
11321;BMP180;5715;48.234;14.320;2023-09-12T03:41:23;98268.00;;;23.40
11321;BMP180;5715;48.234;14.320;2023-09-12T03:44:13;98264.00;;;23.40
11321;BMP180;5715;48.234;14.320;2023-09-12T03:47:00;98264.00;;;23.40
11321;BMP180;5715;48.234;14.320;2023-09-12T03:49:48;98261.00;;;23.40
11321;BMP180;5715;48.234;14.320;2023-09-12T03:52:35;98261.00;;;23.40
11321;BMP180;5715;48.234;14.320;2023-09-12T03:55:23;98265.00;;;23.40
11321;BMP180;5715;48.234;14.320;2023-09-12T03:58:10;98259.00;;;23.40
11321;BMP180;5715;48.234;14.320;2023-09-12T04:00:58;98265.00;;;23.40
11321;BMP180;5715;48.234;14.320;2023-09-12T04:03:45;98265.00;;;23.40
11321;BMP180;5715;48.234;14.320;2023-09-12T04:06:35;98268.00;;;23.50
11321;BMP180;5715;48.234;14.320;2023-09-12T04:09:23;98269.00;;;23.40
11321;BMP180;5715;48.234;14.320;2023-09-12T04:12:10;98272.00;;;23.30
11321;BMP180;5715;48.234;14.320;2023-09-12T04:14:58;98279.00;;;23.20
11321;BMP180;5715;48.234;14.320;2023-09-12T04:17:45;98283.00;;;23.20
11321;BMP180;5715;48.234;14.320;2023-09-12T04:20:33;98286.00;;;23.20
11321;BMP180;5715;48.234;14.320;2023-09-12T04:23:21;98281.00;;;23.20
11321;BMP180;5715;48.234;14.320;2023-09-12T04:26:09;98293.00;;;23.40
11321;BMP180;5715;48.234;14.320;2023-09-12T04:28:57;98295.00;;;23.40
11321;BMP180;5715;48.234;14.320;2023-09-12T04:31:44;98293.00;;;23.40
11321;BMP180;5715;48.234;14.320;2023-09-12T04:34:32;98288.00;;;23.40
11321;BMP180;5715;48.234;14.320;2023-09-12T04:37:19;98289.00;;;23.40
11321;BMP180;5715;48.234;14.320;2023-09-12T04:40:07;98278.00;;;23.40
11321;BMP180;5715;48.234;14.320;2023-09-12T04:42:56;98285.00;;;23.30
11321;BMP180;5715;48.234;14.320;2023-09-12T04:45:43;98287.00;;;23.40
11321;BMP180;5715;48.234;14.320;2023-09-12T04:48:31;98289.00;;;23.40
11321;BMP180;5715;48.234;14.320;2023-09-12T04:51:18;98274.00;;;23.40
11321;BMP180;5715;48.234;14.320;2023-09-12T04:54:06;98286.00;;;23.50
11321;BMP180;5715;48.234;14.320;2023-09-12T04:56:54;98274.00;;;23.60
11321;BMP180;5715;48.234;14.320;2023-09-12T04:59:41;98286.00;;;23.60
11321;BMP180;5715;48.234;14.320;2023-09-12T05:02:29;98288.00;;;23.70
11321;BMP180;5715;48.234;14.320;2023-09-12T05:05:16;98293.00;;;23.60
11321;BMP180;5715;48.234;14.320;2023-09-12T05:08:04;98296.00;;;23.70
11321;BMP180;5715;48.234;14.320;2023-09-12T05:10:52;98301.00;;;23.80
11321;BMP180;5715;48.234;14.320;2023-09-12T05:13:41;98292.00;;;23.90
11321;BMP180;5715;48.234;14.320;2023-09-12T05:16:28;98297.00;;;23.90
11321;BMP180;5715;48.234;14.320;2023-09-12T05:19:16;98298.00;;;24.00
11321;BMP180;5715;48.234;14.320;2023-09-12T05:22:04;98305.00;;;24.20
11321;BMP180;5715;48.234;14.320;2023-09-12T05:24:51;98307.00;;;24.30
11321;BMP180;5715;48.234;14.320;2023-09-12T05:27:39;98307.00;;;24.40
11321;BMP180;5715;48.234;14.320;2023-09-12T05:30:27;98308.00;;;24.50
11321;BMP180;5715;48.234;14.320;2023-09-12T05:33:14;98314.00;;;24.60
11321;BMP180;5715;48.234;14.320;2023-09-12T05:36:02;98307.00;;;24.70
11321;BMP180;5715;48.234;14.320;2023-09-12T05:38:50;98312.00;;;24.70
11321;BMP180;5715;48.234;14.320;2023-09-12T05:41:37;98305.00;;;24.80
11321;BMP180;5715;48.234;14.320;2023-09-12T05:44:25;98309.00;;;25.10
11321;BMP180;5715;48.234;14.320;2023-09-12T05:47:12;98304.00;;;25.70
11321;BMP180;5715;48.234;14.320;2023-09-12T05:50:00;98307.00;;;26.50
11321;BMP180;5715;48.234;14.320;2023-09-12T05:52:48;98314.00;;;27.70
11321;BMP180;5715;48.234;14.320;2023-09-12T05:55:35;98318.00;;;28.50
11321;BMP180;5715;48.234;14.320;2023-09-12T05:58:23;98317.00;;;28.70
11321;BMP180;5715;48.234;14.320;2023-09-12T06:01:10;98316.00;;;28.60
11321;BMP180;5715;48.234;14.320;2023-09-12T06:03:58;98320.00;;;28.50
11321;BMP180;5715;48.234;14.320;2023-09-12T06:06:47;98319.00;;;28.30
11321;BMP180;5715;48.234;14.320;2023-09-12T06:09:34;98319.00;;;28.30
11321;BMP180;5715;48.234;14.320;2023-09-12T06:12:22;98315.00;;;28.20
11321;BMP180;5715;48.234;14.320;2023-09-12T06:15:11;98318.00;;;28.30
11321;BMP180;5715;48.234;14.320;2023-09-12T06:17:58;98318.00;;;28.40
11321;BMP180;5715;48.234;14.320;2023-09-12T06:20:46;98319.00;;;28.20
11321;BMP180;5715;48.234;14.320;2023-09-12T06:23:34;98318.00;;;28.00
11321;BMP180;5715;48.234;14.320;2023-09-12T06:26:22;98319.00;;;28.00
11321;BMP180;5715;48.234;14.320;2023-09-12T06:29:10;98314.00;;;28.30
11321;BMP180;5715;48.234;14.320;2023-09-12T06:31:57;98324.00;;;28.10
11321;BMP180;5715;48.234;14.320;2023-09-12T06:34:45;98317.00;;;28.20
11321;BMP180;5715;48.234;14.320;2023-09-12T06:37:34;98326.00;;;28.30
11321;BMP180;5715;48.234;14.320;2023-09-12T06:40:21;98326.00;;;28.50
11321;BMP180;5715;48.234;14.320;2023-09-12T06:43:09;98328.00;;;28.70
11321;BMP180;5715;48.234;14.320;2023-09-12T06:45:56;98320.00;;;28.70
11321;BMP180;5715;48.234;14.320;2023-09-12T06:48:45;98324.00;;;28.80
11321;BMP180;5715;48.234;14.320;2023-09-12T06:51:33;98323.00;;;28.90
11321;BMP180;5715;48.234;14.320;2023-09-12T06:54:25;98322.00;;;28.80
11321;BMP180;5715;48.234;14.320;2023-09-12T06:57:12;98326.00;;;28.60
11321;BMP180;5715;48.234;14.320;2023-09-12T07:00:01;98316.00;;;28.70
11321;BMP180;5715;48.234;14.320;2023-09-12T07:02:48;98310.00;;;28.90
11321;BMP180;5715;48.234;14.320;2023-09-12T07:05:36;98315.00;;;29.30
11321;BMP180;5715;48.234;14.320;2023-09-12T07:08:26;98321.00;;;29.10
11321;BMP180;5715;48.234;14.320;2023-09-12T07:11:16;98320.00;;;29.40
11321;BMP180;5715;48.234;14.320;2023-09-12T07:14:03;98321.00;;;29.30
11321;BMP180;5715;48.234;14.320;2023-09-12T07:16:51;98326.00;;;29.30
11321;BMP180;5715;48.234;14.320;2023-09-12T07:19:38;98330.00;;;29.20
11321;BMP180;5715;48.234;14.320;2023-09-12T07:22:29;98326.00;;;29.40
11321;BMP180;5715;48.234;14.320;2023-09-12T07:25:16;98333.00;;;29.60
11321;BMP180;5715;48.234;14.320;2023-09-12T07:28:07;98328.00;;;29.50
11321;BMP180;5715;48.234;14.320;2023-09-12T07:30:55;98331.00;;;29.70
11321;BMP180;5715;48.234;14.320;2023-09-12T07:33:43;98327.00;;;30.10
11321;BMP180;5715;48.234;14.320;2023-09-12T07:36:31;98321.00;;;30.20
11321;BMP180;5715;48.234;14.320;2023-09-12T07:39:18;98324.00;;;30.70
11321;BMP180;5715;48.234;14.320;2023-09-12T07:42:06;98325.00;;;30.80
11321;BMP180;5715;48.234;14.320;2023-09-12T07:44:54;98328.00;;;31.10
11321;BMP180;5715;48.234;14.320;2023-09-12T07:47:41;98327.00;;;31.20
11321;BMP180;5715;48.234;14.320;2023-09-12T07:50:29;98329.00;;;31.10
11321;BMP180;5715;48.234;14.320;2023-09-12T07:53:17;98326.00;;;31.50
11321;BMP180;5715;48.234;14.320;2023-09-12T07:56:04;98333.00;;;31.70
11321;BMP180;5715;48.234;14.320;2023-09-12T07:58:57;98333.00;;;32.00
11321;BMP180;5715;48.234;14.320;2023-09-12T08:01:44;98336.00;;;32.20
11321;BMP180;5715;48.234;14.320;2023-09-12T08:04:32;98341.00;;;32.40
11321;BMP180;5715;48.234;14.320;2023-09-12T08:07:21;98341.00;;;32.00
11321;BMP180;5715;48.234;14.320;2023-09-12T08:10:09;98337.00;;;32.20
11321;BMP180;5715;48.234;14.320;2023-09-12T08:12:57;98344.00;;;32.60
11321;BMP180;5715;48.234;14.320;2023-09-12T08:15:44;98344.00;;;32.60
11321;BMP180;5715;48.234;14.320;2023-09-12T08:18:32;98339.00;;;32.60
11321;BMP180;5715;48.234;14.320;2023-09-12T08:21:19;98338.00;;;33.10
11321;BMP180;5715;48.234;14.320;2023-09-12T08:24:07;98341.00;;;33.30
11321;BMP180;5715;48.234;14.320;2023-09-12T08:26:54;98340.00;;;33.00
11321;BMP180;5715;48.234;14.320;2023-09-12T08:29:42;98343.00;;;33.40
11321;BMP180;5715;48.234;14.320;2023-09-12T08:32:31;98339.00;;;32.80
11321;BMP180;5715;48.234;14.320;2023-09-12T08:35:19;98335.00;;;33.40
11321;BMP180;5715;48.234;14.320;2023-09-12T08:38:07;98337.00;;;33.50
11321;BMP180;5715;48.234;14.320;2023-09-12T08:40:55;98333.00;;;33.20
11321;BMP180;5715;48.234;14.320;2023-09-12T08:43:45;98341.00;;;33.50
11321;BMP180;5715;48.234;14.320;2023-09-12T08:46:33;98342.00;;;34.00
11321;BMP180;5715;48.234;14.320;2023-09-12T08:49:20;98335.00;;;34.10
11321;BMP180;5715;48.234;14.320;2023-09-12T08:52:08;98331.00;;;34.10
11321;BMP180;5715;48.234;14.320;2023-09-12T08:54:55;98337.00;;;34.40
11321;BMP180;5715;48.234;14.320;2023-09-12T08:57:48;98327.00;;;34.00
11321;BMP180;5715;48.234;14.320;2023-09-12T09:00:37;98330.00;;;34.60
11321;BMP180;5715;48.234;14.320;2023-09-12T09:03:26;98326.00;;;34.40
11321;BMP180;5715;48.234;14.320;2023-09-12T09:06:16;98320.00;;;34.20
11321;BMP180;5715;48.234;14.320;2023-09-12T09:09:08;98322.00;;;34.40
11321;BMP180;5715;48.234;14.320;2023-09-12T09:11:56;98316.00;;;34.20
11321;BMP180;5715;48.234;14.320;2023-09-12T09:14:43;98305.00;;;33.60
11321;BMP180;5715;48.234;14.320;2023-09-12T09:17:31;98317.00;;;34.00
11321;BMP180;5715;48.234;14.320;2023-09-12T09:20:28;98314.00;;;34.70
11321;BMP180;5715;48.234;14.320;2023-09-12T09:23:17;98317.00;;;35.00
11321;BMP180;5715;48.234;14.320;2023-09-12T09:26:04;98317.00;;;34.80
11321;BMP180;5715;48.234;14.320;2023-09-12T09:29:17;98312.00;;;35.20
11321;BMP180;5715;48.234;14.320;2023-09-12T09:32:19;98311.00;;;35.20
11321;BMP180;5715;48.234;14.320;2023-09-12T09:35:09;98312.00;;;35.60
11321;BMP180;5715;48.234;14.320;2023-09-12T09:37:58;98308.00;;;35.90
11321;BMP180;5715;48.234;14.320;2023-09-12T09:40:46;98306.00;;;35.60
11321;BMP180;5715;48.234;14.320;2023-09-12T09:43:33;98310.00;;;36.10
11321;BMP180;5715;48.234;14.320;2023-09-12T09:46:21;98299.00;;;36.10
11321;BMP180;5715;48.234;14.320;2023-09-12T09:49:11;98299.00;;;35.80
11321;BMP180;5715;48.234;14.320;2023-09-12T09:52:04;98296.00;;;36.30
11321;BMP180;5715;48.234;14.320;2023-09-12T09:54:53;98304.00;;;36.50
11321;BMP180;5715;48.234;14.320;2023-09-12T09:57:41;98297.00;;;36.40
11321;BMP180;5715;48.234;14.320;2023-09-12T10:00:29;98299.00;;;36.60
11321;BMP180;5715;48.234;14.320;2023-09-12T10:03:22;98296.00;;;36.40
11321;BMP180;5715;48.234;14.320;2023-09-12T10:06:11;98291.00;;;36.70
11321;BMP180;5715;48.234;14.320;2023-09-12T10:09:00;98278.00;;;36.50
11321;BMP180;5715;48.234;14.320;2023-09-12T10:11:49;98284.00;;;37.00
11321;BMP180;5715;48.234;14.320;2023-09-12T10:14:40;98281.00;;;37.40
11321;BMP180;5715;48.234;14.320;2023-09-12T10:17:36;98279.00;;;37.40
11321;BMP180;5715;48.234;14.320;2023-09-12T10:21:05;98268.00;;;37.30
11321;BMP180;5715;48.234;14.320;2023-09-12T10:23:58;98279.00;;;37.50
11321;BMP180;5715;48.234;14.320;2023-09-12T10:26:46;98272.00;;;36.80
11321;BMP180;5715;48.234;14.320;2023-09-12T10:29:35;98282.00;;;37.00
11321;BMP180;5715;48.234;14.320;2023-09-12T10:32:23;98273.00;;;37.20
11321;BMP180;5715;48.234;14.320;2023-09-12T10:35:11;98271.00;;;36.70
11321;BMP180;5715;48.234;14.320;2023-09-12T10:38:02;98265.00;;;37.10
11321;BMP180;5715;48.234;14.320;2023-09-12T10:40:54;98263.00;;;37.30
11321;BMP180;5715;48.234;14.320;2023-09-12T10:43:45;98265.00;;;37.60
11321;BMP180;5715;48.234;14.320;2023-09-12T10:46:41;98269.00;;;37.60
11321;BMP180;5715;48.234;14.320;2023-09-12T10:49:31;98268.00;;;37.30
11321;BMP180;5715;48.234;14.320;2023-09-12T10:52:29;98265.00;;;37.70
11321;BMP180;5715;48.234;14.320;2023-09-12T10:55:18;98270.00;;;37.90
11321;BMP180;5715;48.234;14.320;2023-09-12T10:58:10;98270.00;;;38.60
11321;BMP180;5715;48.234;14.320;2023-09-12T11:01:26;98264.00;;;38.40
11321;BMP180;5715;48.234;14.320;2023-09-12T11:07:31;98266.00;;;38.60
11321;BMP180;5715;48.234;14.320;2023-09-12T11:10:21;98265.00;;;38.50
11321;BMP180;5715;48.234;14.320;2023-09-12T11:13:17;98273.00;;;39.40
11321;BMP180;5715;48.234;14.320;2023-09-12T11:16:14;98266.00;;;39.50
11321;BMP180;5715;48.234;14.320;2023-09-12T11:19:22;98261.00;;;39.30
11321;BMP180;5715;48.234;14.320;2023-09-12T11:22:31;98262.00;;;39.80
11321;BMP180;5715;48.234;14.320;2023-09-12T11:25:26;98267.00;;;40.10
11321;BMP180;5715;48.234;14.320;2023-09-12T11:28:14;98253.00;;;40.30
11321;BMP180;5715;48.234;14.320;2023-09-12T11:31:02;98263.00;;;40.10
11321;BMP180;5715;48.234;14.320;2023-09-12T11:33:50;98257.00;;;38.30
11321;BMP180;5715;48.234;14.320;2023-09-12T11:36:42;98259.00;;;39.00
11321;BMP180;5715;48.234;14.320;2023-09-12T11:39:32;98252.00;;;39.80
11321;BMP180;5715;48.234;14.320;2023-09-12T11:42:21;98254.00;;;39.50
11321;BMP180;5715;48.234;14.320;2023-09-12T11:45:11;98246.00;;;39.60
11321;BMP180;5715;48.234;14.320;2023-09-12T11:47:59;98245.00;;;39.80
11321;BMP180;5715;48.234;14.320;2023-09-12T11:50:56;98248.00;;;39.90
11321;BMP180;5715;48.234;14.320;2023-09-12T11:53:49;98249.00;;;40.10
11321;BMP180;5715;48.234;14.320;2023-09-12T11:56:39;98240.00;;;39.50
11321;BMP180;5715;48.234;14.320;2023-09-12T11:59:27;98239.00;;;39.60
11321;BMP180;5715;48.234;14.320;2023-09-12T12:02:15;98238.00;;;39.50
11321;BMP180;5715;48.234;14.320;2023-09-12T12:05:03;98238.00;;;39.70
11321;BMP180;5715;48.234;14.320;2023-09-12T12:07:51;98236.00;;;39.60
11321;BMP180;5715;48.234;14.320;2023-09-12T12:10:43;98235.00;;;39.90
11321;BMP180;5715;48.234;14.320;2023-09-12T12:13:33;98230.00;;;40.20
11321;BMP180;5715;48.234;14.320;2023-09-12T12:16:20;98236.00;;;40.00
11321;BMP180;5715;48.234;14.320;2023-09-12T12:19:13;98225.00;;;39.70
11321;BMP180;5715;48.234;14.320;2023-09-12T12:22:01;98231.00;;;39.90
11321;BMP180;5715;48.234;14.320;2023-09-12T12:24:50;98223.00;;;40.20
11321;BMP180;5715;48.234;14.320;2023-09-12T12:27:41;98226.00;;;40.30
11321;BMP180;5715;48.234;14.320;2023-09-12T12:30:34;98228.00;;;39.60
11321;BMP180;5715;48.234;14.320;2023-09-12T12:33:22;98220.00;;;40.00
11321;BMP180;5715;48.234;14.320;2023-09-12T12:36:25;98217.00;;;40.20
11321;BMP180;5715;48.234;14.320;2023-09-12T12:39:13;98214.00;;;39.70
11321;BMP180;5715;48.234;14.320;2023-09-12T12:42:02;98212.00;;;40.00
11321;BMP180;5715;48.234;14.320;2023-09-12T12:44:56;98214.00;;;40.10
11321;BMP180;5715;48.234;14.320;2023-09-12T12:47:44;98204.00;;;39.70
11321;BMP180;5715;48.234;14.320;2023-09-12T12:50:35;98204.00;;;40.10
11321;BMP180;5715;48.234;14.320;2023-09-12T12:53:48;98202.00;;;39.80
11321;BMP180;5715;48.234;14.320;2023-09-12T12:56:41;98197.00;;;39.60
11321;BMP180;5715;48.234;14.320;2023-09-12T12:59:30;98200.00;;;39.60
11321;BMP180;5715;48.234;14.320;2023-09-12T13:02:22;98198.00;;;39.90
11321;BMP180;5715;48.234;14.320;2023-09-12T13:05:29;98199.00;;;39.90
11321;BMP180;5715;48.234;14.320;2023-09-12T13:08:17;98199.00;;;40.10
11321;BMP180;5715;48.234;14.320;2023-09-12T13:11:05;98198.00;;;40.10
11321;BMP180;5715;48.234;14.320;2023-09-12T13:13:53;98202.00;;;40.00
11321;BMP180;5715;48.234;14.320;2023-09-12T13:16:41;98195.00;;;40.10
11321;BMP180;5715;48.234;14.320;2023-09-12T13:19:29;98203.00;;;40.40
11321;BMP180;5715;48.234;14.320;2023-09-12T13:22:16;98203.00;;;40.10
11321;BMP180;5715;48.234;14.320;2023-09-12T13:25:05;98200.00;;;39.80
11321;BMP180;5715;48.234;14.320;2023-09-12T13:27:53;98194.00;;;39.70
11321;BMP180;5715;48.234;14.320;2023-09-12T13:30:41;98200.00;;;39.60
11321;BMP180;5715;48.234;14.320;2023-09-12T13:33:28;98193.00;;;39.60
11321;BMP180;5715;48.234;14.320;2023-09-12T13:36:16;98192.00;;;39.50
11321;BMP180;5715;48.234;14.320;2023-09-12T13:39:04;98194.00;;;39.10
11321;BMP180;5715;48.234;14.320;2023-09-12T13:41:53;98196.00;;;39.30
11321;BMP180;5715;48.234;14.320;2023-09-12T13:44:47;98185.00;;;39.30
11321;BMP180;5715;48.234;14.320;2023-09-12T13:47:35;98188.00;;;38.90
11321;BMP180;5715;48.234;14.320;2023-09-12T13:50:23;98185.00;;;39.00
11321;BMP180;5715;48.234;14.320;2023-09-12T13:53:11;98191.00;;;38.90
11321;BMP180;5715;48.234;14.320;2023-09-12T13:55:58;98185.00;;;39.00
11321;BMP180;5715;48.234;14.320;2023-09-12T13:58:48;98186.00;;;39.20
11321;BMP180;5715;48.234;14.320;2023-09-12T14:01:35;98192.00;;;39.00
11321;BMP180;5715;48.234;14.320;2023-09-12T14:04:23;98194.00;;;39.10
11321;BMP180;5715;48.234;14.320;2023-09-12T14:07:11;98180.00;;;39.40
11321;BMP180;5715;48.234;14.320;2023-09-12T14:09:59;98190.00;;;39.50
11321;BMP180;5715;48.234;14.320;2023-09-12T14:12:48;98180.00;;;39.70
11321;BMP180;5715;48.234;14.320;2023-09-12T14:15:36;98184.00;;;39.10
11321;BMP180;5715;48.234;14.320;2023-09-12T14:18:24;98181.00;;;39.20
11321;BMP180;5715;48.234;14.320;2023-09-12T14:21:13;98172.00;;;39.00
11321;BMP180;5715;48.234;14.320;2023-09-12T14:24:01;98176.00;;;38.70
11321;BMP180;5715;48.234;14.320;2023-09-12T14:26:49;98175.00;;;38.60
11321;BMP180;5715;48.234;14.320;2023-09-12T14:29:39;98172.00;;;38.60
11321;BMP180;5715;48.234;14.320;2023-09-12T14:32:26;98167.00;;;38.60
11321;BMP180;5715;48.234;14.320;2023-09-12T14:35:14;98176.00;;;38.30
11321;BMP180;5715;48.234;14.320;2023-09-12T14:38:02;98176.00;;;38.10
11321;BMP180;5715;48.234;14.320;2023-09-12T14:40:49;98178.00;;;37.90
11321;BMP180;5715;48.234;14.320;2023-09-12T14:43:37;98175.00;;;37.70
11321;BMP180;5715;48.234;14.320;2023-09-12T14:46:24;98172.00;;;37.70
11321;BMP180;5715;48.234;14.320;2023-09-12T14:49:12;98174.00;;;37.60
11321;BMP180;5715;48.234;14.320;2023-09-12T14:52:00;98173.00;;;37.60
11321;BMP180;5715;48.234;14.320;2023-09-12T14:54:50;98167.00;;;37.70
11321;BMP180;5715;48.234;14.320;2023-09-12T14:57:37;98174.00;;;37.70
11321;BMP180;5715;48.234;14.320;2023-09-12T15:00:25;98166.00;;;38.10
11321;BMP180;5715;48.234;14.320;2023-09-12T15:03:13;98172.00;;;37.60
11321;BMP180;5715;48.234;14.320;2023-09-12T15:06:01;98164.00;;;37.00
11321;BMP180;5715;48.234;14.320;2023-09-12T15:08:49;98168.00;;;37.20
11321;BMP180;5715;48.234;14.320;2023-09-12T15:11:37;98159.00;;;38.20
11321;BMP180;5715;48.234;14.320;2023-09-12T15:14:25;98163.00;;;38.30
11321;BMP180;5715;48.234;14.320;2023-09-12T15:17:12;98167.00;;;38.50
11321;BMP180;5715;48.234;14.320;2023-09-12T15:20:00;98162.00;;;38.40
11321;BMP180;5715;48.234;14.320;2023-09-12T15:22:47;98166.00;;;38.70
11321;BMP180;5715;48.234;14.320;2023-09-12T15:25:35;98163.00;;;38.70
11321;BMP180;5715;48.234;14.320;2023-09-12T15:28:23;98160.00;;;38.80
11321;BMP180;5715;48.234;14.320;2023-09-12T15:31:11;98155.00;;;39.20
11321;BMP180;5715;48.234;14.320;2023-09-12T15:33:59;98162.00;;;39.50
11321;BMP180;5715;48.234;14.320;2023-09-12T15:36:47;98155.00;;;39.30
11321;BMP180;5715;48.234;14.320;2023-09-12T15:39:35;98157.00;;;39.30
11321;BMP180;5715;48.234;14.320;2023-09-12T15:42:23;98154.00;;;39.50
11321;BMP180;5715;48.234;14.320;2023-09-12T15:45:23;98150.00;;;39.40
11321;BMP180;5715;48.234;14.320;2023-09-12T15:48:11;98147.00;;;39.00
11321;BMP180;5715;48.234;14.320;2023-09-12T15:50:59;98154.00;;;38.90
11321;BMP180;5715;48.234;14.320;2023-09-12T15:53:46;98147.00;;;38.90
11321;BMP180;5715;48.234;14.320;2023-09-12T15:56:34;98145.00;;;38.90
11321;BMP180;5715;48.234;14.320;2023-09-12T15:59:21;98151.00;;;38.90
11321;BMP180;5715;48.234;14.320;2023-09-12T16:02:09;98148.00;;;39.00
11321;BMP180;5715;48.234;14.320;2023-09-12T16:04:57;98149.00;;;38.90
11321;BMP180;5715;48.234;14.320;2023-09-12T16:07:44;98141.00;;;38.90
11321;BMP180;5715;48.234;14.320;2023-09-12T16:10:32;98152.00;;;38.80
11321;BMP180;5715;48.234;14.320;2023-09-12T16:13:19;98153.00;;;38.70
11321;BMP180;5715;48.234;14.320;2023-09-12T16:16:07;98145.00;;;38.70
11321;BMP180;5715;48.234;14.320;2023-09-12T16:18:55;98141.00;;;38.60
11321;BMP180;5715;48.234;14.320;2023-09-12T16:21:42;98148.00;;;38.30